Aérodrome :
LOGIN :

S'inscrire | Disclaimer

   EN    FR    IT 

 










Légende :    VFR   VFR Marginal   IFR   IFR Intensif   IFR Très Intensif
Visi : 
Plafond : 
>= 8 km
>= 3000ft
5 à 8 km
1000 à 3000 ft
1500m à 5 km
500 à 1000 ft
800 à 1500m
200 à 500 ft
< 800m
< 200 ft
Symboles :   Orages  Brouillard  Fortes neiges  Fortes précipitations  Vent > 20 kt
SIGMETs :   Divers  Orages  Givrage  Turbulence  Onde Orograph.  Cendres Volcan.







- Altitude de l'aérodrome : 274 ft
- Code IATA : PUY


LDPL - Pula

DERNIER METAR :
  • 092300Z VRB02KT 9999 FEW020 06/04 Q1008

METARs EXPIRÉS :
  • 092230Z VRB02KT CAVOK 05/03 Q1008
  • 092200Z 33003KT 280V360 CAVOK 06/04 Q1008 NOSIG
  • 092130Z 03005KT CAVOK 08/05 Q1007 NOSIG
  • 092100Z 03005KT CAVOK 07/05 Q1007 NOSIG
  • 092030Z 04003KT 350V080 CAVOK 06/05 Q1007 NOSIG

TAF TAF LDPL
Valide du 09 à 18h jusqu'au 10 à 18h UTC


091725Z 0918/1018 27010KT CAVOK TX13/1012Z TN04/1005Z
BECMG 0918/0920 34006KT
Pas de NOTAMs connus pour ce terrain.
2 SIGMETs publiés pour la FIR Zagreb (LDZO) :
 
Orages noyés dans la masse
LDZO SIGMET 12 VALID 092130/092300 LDZA
LDZO ZAGREB FIR EMBD TS OBS WI N4304 E01736 - N4232 E01830 - N4127 E01818 - N4222 E01623 - N4304 E01736 TOP FL320 STNR WKN=
Turbulence forte
LDZO SIGMET 11 VALID 092100/100100 LDZA
LDZO ZAGREB FIR SEV TURB FCST WI N4458 E01545 - N4230 E01829 - N4152 E01824 - N4157 E01711 - N4303 E01459 - N4434 E01321 - N4458 E01545 FL240/400 STNR WKN=



MET'MAP, la Météo Aéronautique d'un coup d'oeil ! - Copyright ORBIFLY Décembre 2007 - Disclaimer

ORBIFLY MET'MAP TEAM :

Programmation & Développement : Alexandra Zaïnal
Conception & Développement : Baudouin d'Aumeries
Co-Programmation & Développement : Marc-Olivier Méhu
Soutien technique & logistique : Manuel Goepfert

Contact : metmap@orbifly.com




SOURCES & CREDITS :

   NOAA